• Join FlightAware (Why Join?)
  • Login
  • US Flag 
01:12PM EST


 

Airport Tracker/Info


-or-


 

Live Flight TrackerFlight Track Log ✈ EJA350 ✈ 28-Jul-2013 ✈ KTEB - KCEZ

Flight Track Log - Related Links

Times and Time Zones

All times are in EDT time to prevent confusion due to time zone crossing. See the EJA350 flight status page for this flight to view local times or setup timezone preferences in your user account.

Time Position Orientation Groundspeed Altitude Reporting Facility
EDT Latitude Longitude Course Direction KTS MPH feet Rate Location/Type
11:38AM 40.8167 -74.1833 252° West 223 257 1,900  Level New York TRACON
11:39AM 40.8167 -74.2833 270° West 245 282 4,300 2,640 Climbing New York TRACON
11:41AM 40.7947 -74.4247 258° West 248 285 9,000 2,940 Climbing New York Center
11:42AM 40.7689 -74.5194 250° West 262 302 12,000 3,000 Climbing New York Center
11:43AM 40.8977 -74.8535 275° West  Level Estimated
11:43AM 40.8353 -74.5889 322° Northwest 253 291 15,100  Level New York Center
11:44AM 40.8847 -74.6739 308° West 287 330 16,600 900 Climbing New York Center
11:45AM 40.8631 -74.8156 259° West 305 351 17,000 540 Climbing New York Center
11:46AM 40.8383 -74.9319 254° West 341 392 17,800 1,500 Climbing New York Center
11:47AM 40.8150 -75.0567 256° West 355 409 20,000 2,100 Climbing New York Center
11:48AM 40.7958 -75.1842 259° West 360 414 22,000 2,100 Climbing New York Center
11:49AM 40.7714 -75.3361 258° West 369 425 24,300 2,160 Climbing New York Center
11:50AM 40.7372 -75.4597 250° West 374 430 26,400 1,740 Climbing New York Center
11:51AM 40.6947 -75.5828 246° West 369 425 27,900 1,200 Climbing New York Center
11:52AM 40.6928 -75.7333 269° West 384 442 28,900 1,020 Climbing New York Center
11:53AM 40.7008 -75.8844 274° West 401 461 30,000 1,020 Climbing New York Center
11:54AM 40.7003 -76.0403 270° West 425 489 31,000 960 Climbing New York Center
11:55AM 40.7058 -76.1942 273° West 430 495 32,000 960 Climbing New York Center
11:56AM 40.7111 -76.3506 273° West 430 495 33,000 960 Climbing New York Center
11:57AM 40.7183 -76.5044 274° West 430 495 34,000 960 Climbing New York Center
11:58AM 40.7211 -76.6581 271° West 425 489 35,000 960 Climbing New York Center
11:59AM 40.7258 -76.8119 272° West 425 489 36,000 960 Climbing New York Center
12:00PM 40.7308 -76.9575 273° West 425 489 37,000 960 Climbing New York Center
12:01PM 40.7358 -77.1033 273° West 419 482 38,000 960 Climbing New York Center
12:03PM 40.7428 -77.3519 272° West 399 459 39,700 840 Climbing Cleveland Center
12:04PM 40.7464 -77.4886 272° West 394 453 40,400 600 Climbing Cleveland Center
12:05PM 40.7481 -77.6258 271° West 383 441 40,900 480 Climbing Cleveland Center
12:06PM 40.7517 -77.7625 272° West 383 441 41,400 420 Climbing Cleveland Center
12:07PM 40.7547 -77.8969 272° West 383 441 41,800 300 Climbing Cleveland Center
12:08PM 40.7581 -78.0364 272° West 383 441 42,100 300 Climbing Cleveland Center
12:09PM 40.7608 -78.1736 272° West 383 441 42,400 240 Climbing Cleveland Center
12:10PM 40.7639 -78.3106 272° West 383 441 42,600 180 Climbing Cleveland Center
12:11PM 40.7664 -78.4531 271° West 383 441 42,800 180 Climbing Cleveland Center
12:12PM 40.7711 -78.5928 273° West 383 441 43,000 60 Climbing Cleveland Center
12:13PM 40.7736 -78.7353 271° West 383 441 43,000  Level Cleveland Center
12:14PM 40.7778 -78.8775 272° West 383 441 43,000  Level Cleveland Center
12:15PM 40.7839 -79.0172 273° West 383 441 43,000  Level Cleveland Center
12:16PM 40.7881 -79.1625 272° West 383 441 43,000  Level Cleveland Center
12:17PM 40.7917 -79.3078 272° West 383 441 43,000  Level Cleveland Center
12:18PM 40.7933 -79.4558 271° West 394 453 43,000  Level Cleveland Center
12:19PM 40.7947 -79.6039 271° West 399 459 43,000  Level Cleveland Center
12:20PM 40.7981 -79.7519 272° West 399 459 43,000  Level Cleveland Center
12:21PM 40.8011 -79.8975 272° West 399 459 43,000  Level Cleveland Center
12:22PM 40.7997 -80.0456 269° West 399 459 43,000  Level Cleveland Center
12:23PM 40.8025 -80.1908 271° West 399 459 43,000  Level Cleveland Center
12:24PM 40.8047 -80.3308 271° West 399 459 43,000  Level Cleveland Center
12:25PM 40.8050 -80.4897 270° West 390 449 43,000  Level Cleveland Center
12:26PM 40.8050 -80.6325 270° West 390 449 43,000  Level Cleveland Center
12:27PM 40.8092 -80.7697 272° West 383 441 43,000  Level Cleveland Center
12:28PM 40.8089 -80.9094 270° West 383 441 43,000  Level Cleveland Center
12:29PM 40.8106 -81.0467 271° West 383 441 43,000  Level Cleveland Center
12:30PM 40.8056 -81.1919 267° West 388 447 43,000  Level Cleveland Center
12:31PM 40.8047 -81.3156 270° West 381 438 43,000  Level Cleveland Center
12:32PM 40.8058 -81.4556 271° West 381 438 43,000  Level Cleveland Center
12:33PM 40.8069 -81.5953 271° West 381 438 43,000  Level Cleveland Center
12:34PM 40.8075 -81.7353 270° West 381 438 43,000  Level Cleveland Center
12:35PM 40.8039 -81.8750 268° West 381 438 43,000  Level Cleveland Center
12:36PM 40.8042 -82.0314 270° West 386 444 43,000  Level Cleveland Center
12:37PM 40.8022 -82.1739 269° West 386 444 43,000  Level Cleveland Center
12:38PM 40.8022 -82.3167 270° West 386 444 43,000  Level Cleveland Center
12:39PM 40.8019 -82.4675 270° West 392 451 43,000  Level Cleveland Center
12:40PM 40.8017 -82.6103 270° West 398 458 43,000  Level Cleveland Center
12:41PM 40.8008 -82.7292 270° West 397 457 43,000  Level Indianapolis Center
12:42PM 40.7981 -82.8739 269° West 392 451 43,000  Level Indianapolis Center
12:43PM 40.7972 -83.0181 270° West 391 450 43,000  Level Indianapolis Center
12:44PM 40.7953 -83.1603 269° West 385 443 43,000  Level Indianapolis Center
12:45PM 40.7928 -83.3269 269° West 387 445 43,000  Level Indianapolis Center
12:46PM 40.7897 -83.4681 268° West 383 441 43,000  Level Indianapolis Center
12:47PM 40.7872 -83.6128 269° West 383 441 43,000  Level Indianapolis Center
12:48PM 40.7844 -83.7536 269° West 382 440 43,000  Level Indianapolis Center
12:49PM 40.7819 -83.8944 269° West 380 437 43,000  Level Indianapolis Center
12:50PM 40.7781 -84.0358 268° West 383 441 43,000  Level Indianapolis Center
12:51PM 40.7758 -84.1783 269° West 386 444 43,000  Level Indianapolis Center
12:52PM 40.7714 -84.3194 268° West 383 441 43,000  Level Indianapolis Center
12:53PM 40.7678 -84.4844 268° West 385 443 43,000  Level Indianapolis Center
12:54PM 40.7636 -84.6261 268° West 383 441 43,000  Level Indianapolis Center
12:55PM 40.7600 -84.7686 268° West 384 442 43,000  Level Indianapolis Center
12:56PM 40.7558 -84.8822 267° West 385 443 43,000  Level Chicago Center
12:57PM 40.7517 -85.0214 268° West 382 440 43,000  Level Chicago Center
12:58PM 40.7467 -85.1622 267° West 383 441 43,000  Level Chicago Center
12:59PM 40.7428 -85.3022 268° West 383 441 43,000  Level Chicago Center
01:00PM 40.7375 -85.4431 267° West 384 442 43,000  Level Chicago Center
01:01PM 40.7306 -85.6131 267° West 386 444 43,000  Level Chicago Center
01:02PM 40.7267 -85.7547 268° West 387 445 43,000 -300 Level Chicago Center
01:03PM 40.7208 -85.8961 267° West 387 445 42,500  Descending Chicago Center
01:04PM 40.7150 -86.0389 267° West 387 445 43,000 240 Climbing Chicago Center
01:05PM 40.7094 -86.1822 267° West 391 450 43,000  Level Chicago Center
01:06PM 40.7036 -86.3242 267° West 389 448 43,000  Level Chicago Center
01:07PM 40.6967 -86.4919 267° West 387 445 43,000  Level Chicago Center
01:08PM 40.6908 -86.6344 267° West 389 448 43,000  Level Chicago Center
01:09PM 40.6839 -86.7725 266° West 384 442 43,000  Level Chicago Center
01:11PM 40.6786 -86.9125 267° West 385 443 43,000  Level Chicago Center
01:12PM 40.6708 -87.0500 266° West 381 438 43,000  Level Chicago Center
01:13PM 40.6622 -87.2178 266° West 383 441 43,000  Level Chicago Center
01:14PM 40.6553 -87.3558 266° West 382 440 43,000  Level Chicago Center
01:15PM 40.6483 -87.4961 266° West 385 443 43,000  Level Chicago Center
01:16PM 40.6408 -87.6369 266° West 389 448 43,000  Level Chicago Center
01:17PM 40.6336 -87.7758 266° West 384 442 43,000  Level Chicago Center
01:18PM 40.6242 -87.9272 265° West 383 441 43,000  Level Chicago Center
01:19PM 40.6169 -88.0658 266° West 381 438 43,000  Level Chicago Center
01:20PM 40.6086 -88.2047 266° West 381 438 43,000  Level Chicago Center
01:21PM 40.5989 -88.3736 266° West 385 443 43,000  Level Chicago Center
01:22PM 40.5906 -88.5139 266° West 385 443 43,000  Level Chicago Center
01:23PM 40.5803 -88.6536 265° West 385 443 43,000  Level Chicago Center
01:24PM 40.5722 -88.7942 266° West 385 443 43,000  Level Chicago Center
01:25PM 40.5628 -88.9336 265° West 384 442 43,000  Level Chicago Center
01:26PM 40.5542 -89.0728 265° West 383 441 43,000  Level Chicago Center
01:27PM 40.5439 -89.2131 265° West 384 442 43,000  Level Chicago Center
01:28PM 40.5333 -89.3803 265° West 382 440 43,000  Level Chicago Center
01:29PM 40.5231 -89.5197 265° West 380 437 43,000  Level Chicago Center
01:30PM 40.5125 -89.6606 264° West 382 440 43,000  Level Chicago Center
01:31PM 40.5014 -89.8019 264° West 382 440 43,000  Level Chicago Center
01:32PM 40.4922 -89.9431 265° West 382 440 43,000  Level Chicago Center
01:33PM 40.4822 -90.0822 265° West 380 437 43,000  Level Chicago Center
01:34PM 40.4719 -90.2217 265° West 381 438 43,000  Level Chicago Center
01:35PM 40.4611 -90.3597 264° West 381 438 43,000  Level Chicago Center
01:36PM 40.4486 -90.5264 264° West 382 440 43,000  Level Chicago Center
01:37PM 40.4381 -90.6647 264° West 381 438 43,000  Level Chicago Center
01:38PM 40.4264 -90.8017 264° West 379 436 43,000  Level Chicago Center
01:39PM 40.4156 -90.9392 264° West 379 436 43,000  Level Chicago Center
01:41PM 40.4039 -91.0761 264° West 378 435 43,000  Level Chicago Center
01:41PM 40.3936 -91.1847 263° West 377 434 43,000  Level Kansas City Center
01:42PM 40.3833 -91.2994 263° West 374 430 43,000  Level Kansas City Center
01:43PM 40.3689 -91.4631 263° West 379 436 43,000  Level Kansas City Center
01:44PM 40.3569 -91.5986 263° West 378 435 43,000  Level Kansas City Center
01:45PM 40.3439 -91.7347 263° West 379 436 43,000  Level Kansas City Center
01:46PM 40.3328 -91.8706 264° West 379 436 43,000  Level Kansas City Center
01:47PM 40.3206 -92.0067 263° West 379 436 43,000  Level Kansas City Center
01:48PM 40.3058 -92.1706 263° West 380 437 43,000  Level Kansas City Center
01:49PM 40.2931 -92.3061 263° West 379 436 43,000  Level Kansas City Center
01:50PM 40.2800 -92.4389 263° West 377 434 43,000  Level Kansas City Center
01:52PM 40.2647 -92.5917 263° West 378 435 43,000  Level Kansas City Center
01:53PM 40.2525 -92.7222 263° West 378 435 43,000  Level Kansas City Center
01:54PM 40.2378 -92.8753 263° West 378 435 43,000  Level Kansas City Center
01:55PM 40.2244 -93.0050 262° West 377 434 43,000  Level Kansas City Center
01:56PM 40.2092 -93.1564 263° West 376 433 43,000  Level Kansas City Center
01:57PM 40.1944 -93.2892 262° West 374 430 43,000  Level Kansas City Center
01:58PM 40.1825 -93.4236 263° West 375 432 43,000  Level Kansas City Center
01:59PM 40.1667 -93.5558 261° West 374 430 43,000  Level Kansas City Center
02:00PM 40.1533 -93.6889 263° West 372 428 43,000  Level Kansas City Center
02:01PM 40.1369 -93.8472 262° West 370 426 43,000  Level Kansas City Center
02:02PM 40.1225 -93.9789 262° West 370 426 43,000  Level Kansas City Center
02:03PM 40.1075 -94.1142 262° West 369 425 43,000  Level Kansas City Center
02:04PM 40.0922 -94.2411 261° West 371 427 43,000  Level Kansas City Center
02:05PM 40.0758 -94.3911 262° West 375 432 43,000  Level Kansas City Center
02:06PM 40.0617 -94.5197 262° West 374 430 43,000  Level Kansas City Center
02:07PM 40.0442 -94.6711 261° West 378 435 43,000  Level Kansas City Center
02:08PM 40.0289 -94.8011 261° West 379 436 43,000  Level Kansas City Center
02:09PM 40.0111 -94.9525 261° West 381 438 43,000  Level Kansas City Center
02:10PM 39.9961 -95.0822 261° West 380 437 43,000  Level Kansas City Center
02:11PM 39.9775 -95.2361 261° West 384 442 43,000  Level Kansas City Center
02:12PM 39.9622 -95.3664 261° West 383 441 43,000  Level Kansas City Center
02:13PM 39.9433 -95.5189 261° West 384 442 43,000  Level Kansas City Center
02:14PM 39.9272 -95.6481 261° West 380 437 43,000  Level Kansas City Center
02:15PM 39.9078 -95.7994 261° West 381 438 43,000  Level Kansas City Center
02:16PM 39.8906 -95.9308 260° West 383 441 43,000  Level Kansas City Center
02:17PM 39.8708 -96.0831 260° West 384 442 43,000  Level Kansas City Center
02:18PM 39.8547 -96.2069 260° West 381 438 43,000  Level Kansas City Center
02:19PM 39.8361 -96.3436 260° West 383 441 43,000  Level Kansas City Center
02:20PM 39.8147 -96.5083 260° West 384 442 43,000  Level Kansas City Center
02:21PM 39.7967 -96.6458 260° West 384 442 43,000  Level Kansas City Center
02:23PM 39.7786 -96.7817 260° West 388 447 43,000  Level Kansas City Center
02:24PM 39.7600 -96.9144 260° West 387 445 43,000  Level Kansas City Center
02:25PM 39.7422 -97.0511 260° West 386 444 43,000  Level Kansas City Center
02:26PM 39.7222 -97.1975 260° West 386 444 43,000  Level Kansas City Center
02:27PM 39.7028 -97.3336 260° West 386 444 43,000  Level Kansas City Center
02:28PM 39.6781 -97.5006 259° West 389 448 43,000  Level Kansas City Center
02:29PM 39.6592 -97.6386 260° West 389 448 43,000  Level Kansas City Center
02:30PM 39.6433 -97.7475 259° West 390 449 43,000  Level Minneapolis Center
02:31PM 39.6236 -97.8850 259° West 389 448 43,000  Level Minneapolis Center
02:32PM 39.6033 -98.0225 259° West 388 447 43,000  Level Minneapolis Center
02:33PM 39.5831 -98.1622 259° West 391 450 43,000  Level Denver Center
02:34PM 39.5628 -98.2983 259° West 386 444 43,000  Level Denver Center
02:34PM 39.5492 -98.3953 260° West 389 448 43,000  Level Kansas City Center
02:35PM 39.5278 -98.5342 259° West 391 450 43,000  Level Kansas City Center
02:36PM 39.5050 -98.6817 259° West 384 442 43,000  Level Kansas City Center
02:37PM 39.4853 -98.8178 259° West 384 442 43,000  Level Kansas City Center
02:38PM 39.4633 -98.9536 258° West 385 443 43,000  Level Kansas City Center
02:39PM 39.4422 -99.0989 259° West 384 442 43,000  Level Kansas City Center
02:41PM 39.4117 -99.2817 258° West 385 443 43,000  Level Denver Center
02:42PM 39.3908 -99.4111 258° West 384 442 43,000  Level Denver Center
02:44PM 39.3522 -99.6619 259° West 384 442 43,000  Level Minneapolis Center
02:45PM 39.3303 -99.7964 258° West 383 441 43,000  Level Minneapolis Center
02:46PM 39.3072 -99.9314 258° West 384 442 43,000  Level Minneapolis Center
02:47PM 39.2747 -100.1250 258° West 387 445 43,000  Level Denver Center
02:48PM 39.2528 -100.2550 258° West 389 448 43,000  Level Denver Center
02:49PM 39.2203 -100.4064 255° West 392 451 43,000  Level Denver Center
02:50PM 39.1931 -100.5364 255° West 394 453 43,000  Level Denver Center
02:51PM 39.1608 -100.6847 254° West 388 447 43,000  Level Denver Center
02:52PM 39.1336 -100.8158 255° West 393 452 43,000  Level Denver Center
02:53PM 39.1056 -100.9456 254° West 394 453 43,000  Level Denver Center
02:54PM 39.0731 -101.0978 255° West 395 455 43,000  Level Denver Center
02:55PM 39.0453 -101.2275 255° West 393 452 43,000  Level Denver Center
02:56PM 39.0139 -101.3714 254° West 395 455 43,000  Level Denver Center
02:57PM 38.9803 -101.5206 254° West 391 450 43,000  Level Denver Center
02:58PM 38.9522 -101.6500 254° West 394 453 43,000  Level Denver Center
02:59PM 38.9183 -101.7997 254° West 392 451 43,000  Level Denver Center
03:00PM 38.8892 -101.9281 254° West 392 451 43,000  Level Denver Center
03:02PM 38.8558 -102.0789 254° West 394 453 43,000  Level Denver Center
03:03PM 38.8264 -102.2072 254° West 394 453 43,000  Level Denver Center
03:04PM 38.7919 -102.3581 254° West 394 453 43,000  Level Denver Center
03:05PM 38.7614 -102.4869 253° West 396 456 43,000  Level Denver Center
03:06PM 38.7272 -102.6375 254° West 395 455 43,000  Level Denver Center
03:07PM 38.6978 -102.7622 253° West 396 456 43,000  Level Denver Center
03:08PM 38.6653 -102.8986 253° West 400 460 43,000  Level Denver Center
03:09PM 38.6275 -103.0594 253° West 396 456 43,000  Level Denver Center
03:10PM 38.5958 -103.1956 253° West 400 460 43,000  Level Denver Center
03:11PM 38.5639 -103.3286 253° West 403 464 43,000  Level Denver Center
03:12PM 38.5303 -103.4683 253° West 400 460 43,000 -480 Level Denver Center
03:13PM 38.4936 -103.6228 253° West 407 468 42,100 -960 Descending Denver Center
03:14PM 38.4625 -103.7472 252° West 392 451 41,100 -1,020 Descending Denver Center
03:15PM 38.4483 -103.8925 263° West 378 435 40,000 -1,020 Descending Denver Center
03:16PM 38.4539 -104.0197 273° West 375 432 39,000 -1,020 Descending Denver Center
03:17PM 38.4561 -104.1689 271° West 392 451 38,000 -1,020 Descending Denver Center
03:18PM 38.4583 -104.3128 271° West 403 464 37,000 -1,020 Descending Denver Center
03:19PM 38.4617 -104.4561 272° West 405 466 36,000 -1,020 Descending Denver Center
03:21PM 38.4384 -104.6413 261° West  Level FlightAware Approximate
03:21PM 38.4733 -104.7403 261° West 403 464 34,000  Level Denver Center
03:22PM 38.4556 -104.9136 263° West 410 472 34,000  Level Denver Center
03:23PM 38.4394 -105.0592 262° West 414 476 34,000  Level Denver Center
03:24PM 38.4239 -105.2006 262° West 406 467 34,000  Level Denver Center
03:26PM 38.4047 -105.3667 262° West 396 456 34,000  Level Denver Center
03:27PM 38.3903 -105.5050 262° West 394 453 34,000  Level Denver Center
03:28PM 38.3733 -105.6419 261° West 392 451 34,000  Level Denver Center
03:29PM 38.3550 -105.8047 262° West 387 445 34,000  Level Denver Center
03:30PM 38.3383 -105.9425 261° West 386 444 34,000 -480 Level Denver Center
03:31PM 38.3233 -106.0744 262° West 393 452 33,100 -960 Descending Denver Center
03:32PM 38.3033 -106.2344 261° West 410 472 32,000 -1,200 Descending Denver Center
03:33PM 38.2850 -106.3822 261° West 420 483 30,700 -1,620 Descending Denver Center
03:34PM 38.2669 -106.5264 261° West 424 488 28,700 -2,100 Descending Denver Center
03:35PM 38.2464 -106.6961 261° West 431 496 26,400 -2,280 Descending Denver Center
03:36PM 38.2286 -106.8322 261° West 411 473 24,000 -2,160 Descending Denver Center
03:37PM 38.2117 -106.9678 261° West 403 464 22,000 -1,200 Descending Denver Center
03:38PM 38.1939 -107.1006 260° West 384 442 21,600 -1,020 Descending Denver Center
03:39PM 38.1742 -107.2561 261° West 367 422 19,900 -1,260 Descending Denver Center
03:40PM 38.1586 -107.3778 261° West 365 420 19,000 -900 Descending Denver Center
03:41PM 38.1411 -107.5183 261° West 361 415 18,100 -1,080 Descending Denver Center
03:42PM 38.1247 -107.6297 259° West 346 398 16,800 -720 Descending Denver Center
03:43PM 38.1111 -107.7400 261° West 308 354 16,700  Descending Denver Center
03:44PM 38.0708 -107.7897 224° Southwest 258 297 16,800  Climbing Denver Center
03:45PM 38.0111 -107.8706 227° Southwest 273 314 16,700 -60 Descending Denver Center
03:46PM 37.9883 -107.9544 251° West 263 303 16,700  Level Denver Center
03:47PM 38.0019 -108.0567 280° West 265 305 16,700  Level Denver Center
03:48PM 38.0250 -108.1317 291° West 252 290 16,800 -240 Climbing Denver Center
03:49PM 38.0750 -108.2028 312° West 259 298 16,300 -1,320 Descending Denver Center
03:51PM 38.1300 -108.2953 307° West 264 304 13,800 -1,980 Descending Denver Center
03:52PM 38.0831 -108.3389 216° Southwest 266 306 11,900 -1,020 Descending Denver Center
03:53PM 38.0403 -108.2556 123° Southeast 273 314 11,800 -60 Descending Denver Center
03:54PM 38.0039 -108.1775 121° Southeast 273 314 11,800 -240 Level Denver Center
03:55PM 37.9878 -108.1078 106° East 226 260 11,400 -120 Descending Denver Center
03:57PM 37.9538 -107.9088 104° East  Level Estimated
03:57PM 37.9572 -107.9317 104° East 196 226 11,500  Level Denver Center
03:58PM 37.8931 -107.8833 149° Southeast 322 371 14,300 2,460 Climbing Denver Center
03:59PM 37.8728 -107.9728 254° West 308 354 16,700 1,200 Climbing Denver Center
04:01PM 37.8528 -108.0850 257° West 321 369 16,800 60 Climbing Denver Center
04:02PM 37.7772 -108.1036 191° South 290 334 16,900  Climbing Denver Center
04:03PM 37.7017 -108.1525 207° Southwest 289 333 16,900  Level Denver Center
04:04PM 37.6381 -108.2281 223° Southwest 283 326 16,900 -780 Level Denver Center
04:05PM 37.5733 -108.3044 223° Southwest 284 327 15,300 -1,260 Descending Denver Center
04:06PM 37.5264 -108.3594 223° Southwest 288 331 14,400 -900 Descending Denver Center